Pearl Of Scandinavia — OWFU2 — position and weather

sailwx.info

Track history (hours):
 
Tides and Currents Weather Stations Pressure Air Temp Water Temp Dewpoint Dewpoint Depression Visibility Wind Speed Wind Dir Waves Ship Positions

Pearl Of Scandinavia

Last reported at 2018-Feb-19 10:00 UTC. Time now 2018-Feb-19 10:21 UTC.
Position N 55°42' E 012°36'.

Length 176.4 m; beam 34 m; draft 6.215 m.

Type: Ship. MMSI: 219945000.

Date/timePositionNaut miles runAvg speedWind from/ knotsBaromVisibWave heightAir tempDewpointWater temp
2018-Feb-19 10:00N 55°42' E 012°36'0 0.0
2018-Feb-19 09:30N 55°42' E 012°36'0 0.0
2018-Feb-19 09:00N 55°42' E 012°36'0 0.7
2018-Feb-19 08:30N 55°42' E 012°36'510.6
2018-Feb-19 08:00N 55°47' E 012°42'713.8
2018-Feb-19 07:30N 55°54' E 012°40'714.2
2018-Feb-19 07:00N 56°01' E 012°40'713.8
2018-Feb-19 06:30N 56°06' E 012°33'714.7
2018-Feb-19 06:00N 56°13' E 012°27'815.5
2018-Feb-19 05:30N 56°20' E 012°22'816.2
2018-Feb-19 04:59N 56°28' E 012°18'4616.7
2018-Feb-19 02:12N 57°13' E 011°53'316.4
2018-Feb-19 02:00N 57°15' E 011°51'816.6
2018-Feb-19 01:30N 57°23' E 011°43'817.0
2018-Feb-19 01:00N 57°30' E 011°36'816.8
2018-Feb-19 00:31N 57°37' E 011°28'816.7
2018-Feb-19 00:00N 57°45' E 011°21'816.7
2018-Feb-18 23:30N 57°53' E 011°15'816.8
2018-Feb-18 23:00N 58°01' E 011°11'816.2
2018-Feb-18 22:30N 58°08' E 011°06'816.2
2018-Feb-18 22:00N 58°16' E 011°02'816.4
2018-Feb-18 21:31N 58°24' E 010°57'815.1
2018-Feb-18 21:00N 58°31' E 010°53'816.1
2018-Feb-18 20:30N 58°39' E 010°49'816.4
2018-Feb-18 20:00N 58°47' E 010°45'917.3
2018-Feb-18 19:30N 58°56' E 010°43'917.2
2018-Feb-18 19:00N 59°04' E 010°40'917.1
2018-Feb-18 18:30N 59°12' E 010°37'917.1
2018-Feb-18 18:00N 59°21' E 010°35'816.6
2018-Feb-18 17:30N 59°29' E 010°34'816.3
2018-Feb-18 17:00N 59°37' E 010°37'815.0
2018-Feb-18 16:30N 59°44' E 010°33'816.1
2018-Feb-18 16:00N 59°52' E 010°38'4 8.0
2018-Feb-18 15:30N 59°54' E 010°45'0 0.0
2018-Feb-18 14:59N 59°54' E 010°45'0 0.0
2018-Feb-18 14:29N 59°54' E 010°45'0 0.0
2018-Feb-18 13:59N 59°54' E 010°45'0 0.0
2018-Feb-18 13:29N 59°54' E 010°45'0 0.0
2018-Feb-18 12:59N 59°54' E 010°45'0 0.0
2018-Feb-18 12:29N 59°54' E 010°45'0 0.0
2018-Feb-18 11:59N 59°54' E 010°45'0 0.0
2018-Feb-18 11:29N 59°54' E 010°45'0 0.0
2018-Feb-18 10:59N 59°54' E 010°45'0 0.0
2018-Feb-18 10:29N 59°54' E 010°45'0 0.0
2018-Feb-18 09:59N 59°54' E 010°45'0 0.0
2018-Feb-18 09:29N 59°54' E 010°45'0 0.0
2018-Feb-18 08:59N 59°54' E 010°45'0 0.4
2018-Feb-18 08:30N 59°54' E 010°44'612.7
2018-Feb-18 08:00N 59°50' E 010°36'815.3
2018-Feb-18 07:30N 59°42' E 010°36'714.6
2018-Feb-18 07:01N 59°35' E 010°38'815.6
2018-Feb-18 06:31N 59°27' E 010°34'815.8
2018-Feb-18 06:01N 59°19' E 010°36'816.0
2018-Feb-18 05:31N 59°11' E 010°39'815.7
2018-Feb-18 05:00N 59°04' E 010°39'815.6
2018-Feb-18 04:31N 58°56' E 010°38'815.6
2018-Feb-18 04:01N 58°48' E 010°37'917.3
2018-Feb-18 03:31N 58°39' E 010°38'917.2
2018-Feb-18 03:00N 58°31' E 010°39'915.6
2018-Feb-18 02:27N 58°22' E 010°44'1316.1
2018-Feb-18 01:40N 58°11' E 010°51'316.2
2018-Feb-18 01:29N 58°08' E 010°53'816.2
2018-Feb-18 01:00N 58°00' E 010°58'815.8
2018-Feb-18 00:31N 57°53' E 011°03'815.9
2018-Feb-18 00:00N 57°45' E 011°08'816.3
2018-Feb-17 23:31N 57°38' E 011°16'816.8
2018-Feb-17 23:00N 57°31' E 011°24'816.6
2018-Feb-17 22:31N 57°24' E 011°31'816.4
2018-Feb-17 22:01N 57°16' E 011°36'816.4
2018-Feb-17 21:30N 57°08' E 011°40'816.6
2018-Feb-17 21:00N 57°00' E 011°45'5316.2
2018-Feb-17 17:44N 56°13' E 012°28'416.8
2018-Feb-17 17:30N 56°10' E 012°31'816.4
2018-Feb-17 17:00N 56°03' E 012°39'816.1
2018-Feb-17 16:30N 55°55' E 012°44'815.6
2018-Feb-17 16:00N 55°47' E 012°43'612.8
2018-Feb-17 15:30N 55°42' E 012°36'0 0.2
2018-Feb-17 15:00N 55°42' E 012°36'0 0.0
2018-Feb-17 14:30N 55°42' E 012°36'0 0.0
2018-Feb-17 14:00N 55°42' E 012°36'0 0.0
2018-Feb-17 13:30N 55°42' E 012°36'0 0.0
2018-Feb-17 13:00N 55°42' E 012°36'0 0.0
2018-Feb-17 12:30N 55°42' E 012°36'0 0.0
2018-Feb-17 12:00N 55°42' E 012°36'0 0.0
2018-Feb-17 11:30N 55°42' E 012°36'0 0.0
2018-Feb-17 11:00N 55°42' E 012°36'0 0.0
2018-Feb-17 10:30N 55°42' E 012°36'0 0.0
2018-Feb-17 10:00N 55°42' E 012°36'0 0.0
2018-Feb-17 09:30N 55°42' E 012°36'0 0.0
2018-Feb-17 09:00N 55°42' E 012°36'0 0.6
2018-Feb-17 08:30N 55°42' E 012°36'611.3
2018-Feb-17 08:00N 55°47' E 012°42'714.3
2018-Feb-17 07:30N 55°54' E 012°39'815.2
2018-Feb-17 07:00N 56°02' E 012°39'815.8
2018-Feb-17 06:30N 56°08' E 012°30'815.5
2018-Feb-17 06:00N 56°15' E 012°25'815.5
2018-Feb-17 05:30N 56°23' E 012°21'5417.0
2018-Feb-17 02:21N 57°14' E 011°52'617.4
2018-Feb-17 02:00N 57°19' E 011°47'917.8
2018-Feb-17 01:30N 57°27' E 011°38'918.0
2018-Feb-17 01:01N 57°34' E 011°30'917.4
2018-Feb-17 00:30N 57°42' E 011°23'816.6
2018-Feb-17 00:00N 57°50' E 011°17'917.1
2018-Feb-16 23:30N 57°58' E 011°12'815.7
2018-Feb-16 23:00N 58°05' E 011°08'714.7
2018-Feb-16 22:30N 58°12' E 011°04'715.0
2018-Feb-16 22:00N 58°20' E 010°60'815.3
2018-Feb-16 21:30N 58°27' E 010°56'815.3
2018-Feb-16 21:00N 58°34' E 010°52'815.4
2018-Feb-16 20:31N 58°42' E 010°47'815.8
2018-Feb-16 20:00N 58°50' E 010°45'816.3
2018-Feb-16 19:31N 58°58' E 010°42'816.4
2018-Feb-16 19:00N 59°06' E 010°40'816.5
2018-Feb-16 18:30N 59°14' E 010°37'816.6
2018-Feb-16 18:00N 59°22' E 010°34'816.7
2018-Feb-16 17:30N 59°30' E 010°35'816.2
2018-Feb-16 17:00N 59°38' E 010°37'714.3
2018-Feb-16 16:30N 59°45' E 010°33'815.9
2018-Feb-16 16:00N 59°53' E 010°39'3 6.3
2018-Feb-16 15:30N 59°54' E 010°45'0 0.0
2018-Feb-16 15:00N 59°54' E 010°45'0 0.0
2018-Feb-16 14:30N 59°54' E 010°45'0 0.0
2018-Feb-16 14:00N 59°54' E 010°45'0 0.0
2018-Feb-16 13:30N 59°54' E 010°45'0 0.0
2018-Feb-16 13:00N 59°54' E 010°45'0 0.0
2018-Feb-16 12:29N 59°54' E 010°45'0 0.0
2018-Feb-16 11:59N 59°54' E 010°45'0 0.0
2018-Feb-16 11:26N 59°54' E 010°45'0 0.0
2018-Feb-16 10:56N 59°54' E 010°45'0 0.0
2018-Feb-16 10:29N 59°54' E 010°45'0 0.0
2018-Feb-16 09:59N 59°54' E 010°45'0 0.0
2018-Feb-16 09:29N 59°54' E 010°45'0 0.0
2018-Feb-16 08:59N 59°54' E 010°45'2 3.2
2018-Feb-16 08:30N 59°54' E 010°42'713.5
2018-Feb-16 08:01N 59°48' E 010°35'815.2
2018-Feb-16 07:30N 59°41' E 010°37'612.5
2018-Feb-16 07:00N 59°34' E 010°38'815.4
2018-Feb-16 06:30N 59°27' E 010°34'816.1
2018-Feb-16 06:00N 59°19' E 010°36'816.8
2018-Feb-16 05:31N 59°11' E 010°39'816.0
2018-Feb-16 05:00N 59°03' E 010°39'816.1
2018-Feb-16 04:30N 58°55' E 010°38'917.2
2018-Feb-16 04:01N 58°46' E 010°37'816.8
2018-Feb-16 03:30N 58°38' E 010°38'816.6
2018-Feb-16 03:01N 58°30' E 010°40'2316.6
2018-Feb-16 01:38N 58°08' E 010°53'215.9
2018-Feb-16 01:30N 58°06' E 010°54'816.2
2018-Feb-16 01:01N 57°58' E 010°59'816.4
2018-Feb-16 00:30N 57°50' E 011°04'816.4
2018-Feb-16 00:01N 57°43' E 011°10'816.2
2018-Feb-15 23:31N 57°36' E 011°18'816.2
2018-Feb-15 23:00N 57°29' E 011°27'817.0
2018-Feb-15 22:31N 57°22' E 011°33'816.9
2018-Feb-15 22:01N 57°14' E 011°38'816.5
2018-Feb-15 21:30N 57°05' E 011°42'916.8
2018-Feb-15 20:59N 56°57' E 011°46'5016.0
2018-Feb-15 17:54N 56°13' E 012°28'716.8
2018-Feb-15 17:30N 56°07' E 012°33'917.7
2018-Feb-15 17:01N 55°60' E 012°41'816.4
2018-Feb-15 16:31N 55°52' E 012°44'816.1
2018-Feb-15 16:01N 55°44' E 012°40'3 5.8
2018-Feb-15 15:31N 55°42' E 012°36'0 0.0
2018-Feb-15 14:59N 55°42' E 012°36'0 0.0
2018-Feb-15 14:29N 55°42' E 012°36'0 0.0
2018-Feb-15 13:59N 55°42' E 012°36'0 0.0
2018-Feb-15 13:29N 55°42' E 012°36'0 0.0
2018-Feb-15 13:00N 55°42' E 012°36'0 0.0
2018-Feb-15 12:30N 55°42' E 012°36'0 0.0
2018-Feb-15 12:00N 55°42' E 012°36'0 0.0
2018-Feb-15 11:30N 55°42' E 012°36'0 0.0
2018-Feb-15 11:00N 55°42' E 012°36'0 0.0
2018-Feb-15 10:29N 55°42' E 012°36'0 0.0
2018-Feb-15 10:00N 55°42' E 012°36'0 0.0
2018-Feb-15 09:30N 55°42' E 012°36'0 0.0
2018-Feb-15 09:00N 55°42' E 012°36'0 0.6
2018-Feb-15 08:30N 55°42' E 012°36'612.1
2018-Feb-15 08:01N 55°47' E 012°43'714.3
2018-Feb-15 07:31N 55°54' E 012°44'714.7
2018-Feb-15 07:00N 56°01' E 012°40'612.7
2018-Feb-15 06:30N 56°06' E 012°33'713.9
2018-Feb-15 06:01N 56°12' E 012°27'816.4
2018-Feb-15 05:30N 56°20' E 012°22'5617.1
2018-Feb-15 02:13N 57°14' E 011°52'315.9
2018-Feb-15 02:00N 57°17' E 011°49'816.2
2018-Feb-15 01:30N 57°24' E 011°42'816.0
2018-Feb-15 01:00N 57°31' E 011°34'816.4
2018-Feb-15 00:31N 57°38' E 011°27'816.2
2018-Feb-15 00:01N 57°46' E 011°21'816.1
2018-Feb-14 23:30N 57°53' E 011°15'815.6
2018-Feb-14 23:00N 58°01' E 011°11'816.3
2018-Feb-14 22:31N 58°08' E 011°07'714.9
2018-Feb-14 22:00N 58°16' E 011°03'815.3
2018-Feb-14 21:30N 58°23' E 010°59'815.9
2018-Feb-14 21:00N 58°31' E 010°55'815.6
2018-Feb-14 20:30N 58°38' E 010°50'816.1
2018-Feb-14 20:00N 58°46' E 010°46'816.8
2018-Feb-14 19:30N 58°54' E 010°43'817.0
2018-Feb-14 19:00N 59°03' E 010°41'817.0
2018-Feb-14 18:30N 59°11' E 010°38'917.2
2018-Feb-14 18:01N 59°19' E 010°35'816.9
2018-Feb-14 17:30N 59°28' E 010°34'917.2
2018-Feb-14 17:01N 59°36' E 010°38'713.7
2018-Feb-14 16:30N 59°43' E 010°35'815.6
2018-Feb-14 16:00N 59°51' E 010°37'510.8
2018-Feb-14 15:30N 59°54' E 010°45'0 0.0
2018-Feb-14 15:00N 59°54' E 010°45'0 0.0
2018-Feb-14 14:30N 59°54' E 010°45'0 0.0
2018-Feb-14 14:00N 59°54' E 010°45'0 0.0
2018-Feb-14 13:30N 59°54' E 010°45'0 0.0
2018-Feb-14 13:00N 59°54' E 010°45'0 0.0
2018-Feb-14 12:30N 59°54' E 010°45'0 0.0
2018-Feb-14 12:00N 59°54' E 010°45'0 0.0
2018-Feb-14 11:30N 59°54' E 010°45'0 0.0
2018-Feb-14 11:00N 59°54' E 010°45'0 0.0
2018-Feb-14 10:30N 59°54' E 010°45'0 0.0
2018-Feb-14 10:00N 59°54' E 010°45'0 0.0
2018-Feb-14 09:30N 59°54' E 010°45'0 0.0
2018-Feb-14 09:00N 59°54' E 010°45'1 1.1
2018-Feb-14 08:30N 59°54' E 010°44'713.6
2018-Feb-14 08:01N 59°49' E 010°35'714.8
2018-Feb-14 07:30N 59°41' E 010°36'713.9
2018-Feb-14 07:01N 59°35' E 010°38'815.8
2018-Feb-14 06:30N 59°27' E 010°34'815.9
2018-Feb-14 06:00N 59°19' E 010°36'816.3
2018-Feb-14 05:31N 59°11' E 010°39'816.0
2018-Feb-14 05:01N 59°03' E 010°41'816.0
2018-Feb-14 04:30N 58°55' E 010°43'815.7
2018-Feb-14 04:00N 58°47' E 010°44'815.7
2018-Feb-14 03:30N 58°40' E 010°47'816.6
2018-Feb-14 03:00N 58°32' E 010°51'816.4
2018-Feb-14 02:30N 58°24' E 010°56'916.8
2018-Feb-14 02:00N 58°16' E 011°01'816.5
2018-Feb-14 01:31N 58°08' E 011°05'816.5
2018-Feb-14 01:01N 58°00' E 011°10'816.4
2018-Feb-14 00:30N 57°52' E 011°15'815.3
2018-Feb-14 00:01N 57°45' E 011°19'815.9
2018-Feb-13 23:30N 57°37' E 011°23'815.9
2018-Feb-13 23:01N 57°30' E 011°28'816.0
2018-Feb-13 22:30N 57°22' E 011°32'816.4
2018-Feb-13 22:00N 57°14' E 011°37'816.9
2018-Feb-13 21:31N 57°06' E 011°41'816.5
2018-Feb-13 21:00N 56°58' E 011°46'816.2
2018-Feb-13 20:29N 56°51' E 011°54'816.3
2018-Feb-13 19:59N 56°44' E 012°01'915.7
2018-Feb-13 19:25N 56°36' E 012°10'2515.8
2018-Feb-13 17:50N 56°13' E 012°27'516.4
2018-Feb-13 17:30N 56°09' E 012°32'815.7
2018-Feb-13 17:00N 56°02' E 012°40'815.9
2018-Feb-13 16:31N 55°55' E 012°44'815.3
2018-Feb-13 16:01N 55°47' E 012°42'612.2
2018-Feb-13 15:30N 55°42' E 012°36'0 0.2
2018-Feb-13 15:00N 55°42' E 012°36'0 0.0
2018-Feb-13 14:30N 55°42' E 012°36'0 0.0
2018-Feb-13 14:00N 55°42' E 012°36'0 0.0
2018-Feb-13 13:30N 55°42' E 012°36'0 0.0
2018-Feb-13 13:00N 55°42' E 012°36'0 0.0
2018-Feb-13 12:30N 55°42' E 012°36'0 0.0
2018-Feb-13 12:00N 55°42' E 012°36'0 0.0
2018-Feb-13 11:30N 55°42' E 012°36'0 0.0
2018-Feb-13 11:00N 55°42' E 012°36'0 0.0
2018-Feb-13 10:30N 55°42' E 012°36'0 0.0
2018-Feb-13 10:00N 55°42' E 012°36'0 0.0
2018-Feb-13 09:30N 55°42' E 012°36'0 0.0
2018-Feb-13 09:00N 55°42' E 012°36'0 0.8
2018-Feb-13 08:30N 55°42' E 012°36'611.1
2018-Feb-13 08:00N 55°47' E 012°42'714.0
2018-Feb-13 07:30N 55°54' E 012°39'714.9
2018-Feb-13 07:00N 56°01' E 012°40'815.8
2018-Feb-13 06:30N 56°07' E 012°31'815.6
2018-Feb-13 06:00N 56°15' E 012°25'815.5
2018-Feb-13 05:30N 56°22' E 012°21'915.9
2018-Feb-13 04:58N 56°30' E 012°18'4516.2
2018-Feb-13 02:10N 57°14' E 011°52'316.6
2018-Feb-13 02:00N 57°16' E 011°50'816.4
2018-Feb-13 01:30N 57°23' E 011°43'816.4
2018-Feb-13 01:00N 57°30' E 011°36'917.2
2018-Feb-13 00:30N 57°38' E 011°28'817.0
2018-Feb-13 00:00N 57°45' E 011°20'816.3
2018-Feb-12 23:30N 57°53' E 011°15'816.0
2018-Feb-12 23:01N 58°01' E 011°11'714.6
2018-Feb-12 22:31N 58°08' E 011°07'714.0
2018-Feb-12 22:00N 58°14' E 011°03'714.3
2018-Feb-12 21:30N 58°21' E 010°59'714.6
2018-Feb-12 21:00N 58°28' E 010°55'815.2
2018-Feb-12 20:30N 58°36' E 010°51'815.6
2018-Feb-12 20:00N 58°43' E 010°47'816.2
2018-Feb-12 19:31N 58°51' E 010°44'917.0
2018-Feb-12 19:00N 58°59' E 010°42'917.1
2018-Feb-12 18:30N 59°08' E 010°39'917.4
2018-Feb-12 18:00N 59°16' E 010°36'918.1
2018-Feb-12 17:30N 59°25' E 010°33'917.5
2018-Feb-12 17:00N 59°34' E 010°38'815.2
2018-Feb-12 16:30N 59°41' E 010°36'815.9
2018-Feb-12 16:00N 59°49' E 010°34'713.8
2018-Feb-12 15:30N 59°54' E 010°44'0 0.5
2018-Feb-12 15:00N 59°54' E 010°45'0 0.0
2018-Feb-12 14:29N 59°54' E 010°45'0 0.0
2018-Feb-12 13:59N 59°54' E 010°45'0 0.0
2018-Feb-12 13:29N 59°54' E 010°45'0 0.0
2018-Feb-12 12:59N 59°54' E 010°45'0 0.0
2018-Feb-12 12:29N 59°54' E 010°45'0 0.0
2018-Feb-12 11:59N 59°54' E 010°45'0 0.0
2018-Feb-12 11:29N 59°54' E 010°45'0 0.0
2018-Feb-12 10:59N 59°54' E 010°45'0 0.0
2018-Feb-12 10:29N 59°54' E 010°45'0 0.0
2018-Feb-12 09:59N 59°54' E 010°45'0 0.0
2018-Feb-12 09:29N 59°54' E 010°45'0 0.0
2018-Feb-12 08:59N 59°54' E 010°45'1 1.5
2018-Feb-12 08:30N 59°54' E 010°43'714.5
2018-Feb-12 08:00N 59°48' E 010°35'714.3
2018-Feb-12 07:31N 59°41' E 010°36'714.4
2018-Feb-12 07:01N 59°34' E 010°38'815.6
2018-Feb-12 06:30N 59°26' E 010°34'816.0
2018-Feb-12 06:01N 59°19' E 010°36'817.0
2018-Feb-12 05:31N 59°10' E 010°39'816.7
2018-Feb-12 05:01N 59°02' E 010°41'815.9
2018-Feb-12 04:31N 58°54' E 010°43'816.1
2018-Feb-12 04:01N 58°46' E 010°45'816.2
2018-Feb-12 03:31N 58°38' E 010°48'816.4
2018-Feb-12 03:00N 58°30' E 010°53'816.8
2018-Feb-12 02:30N 58°22' E 010°58'917.8
2018-Feb-12 02:00N 58°14' E 011°03'917.3
2018-Feb-12 01:28N 58°05' E 011°08'816.9
2018-Feb-12 01:01N 57°58' E 011°14'816.6
2018-Feb-12 00:31N 57°50' E 011°19'816.3
2018-Feb-12 00:00N 57°42' E 011°24'815.8
2018-Feb-11 23:30N 57°35' E 011°30'816.2
2018-Feb-11 23:01N 57°28' E 011°36'815.7
2018-Feb-11 22:31N 57°21' E 011°44'816.0
2018-Feb-11 22:01N 57°14' E 011°52'816.4
2018-Feb-11 21:30N 57°07' E 011°58'5615.9
2018-Feb-11 17:57N 56°13' E 012°28'817.0
2018-Feb-11 17:30N 56°06' E 012°35'817.0
2018-Feb-11 17:01N 55°59' E 012°42'816.2
2018-Feb-11 16:31N 55°51' E 012°44'815.4
2018-Feb-11 16:01N 55°43' E 012°39'2 4.4
2018-Feb-11 15:31N 55°42' E 012°36'0 0.0
2018-Feb-11 15:01N 55°42' E 012°36'0 0.0
2018-Feb-11 14:28N 55°42' E 012°36'0 0.0
2018-Feb-11 13:58N 55°42' E 012°36'0 0.0
2018-Feb-11 13:28N 55°42' E 012°36'0 0.0
2018-Feb-11 12:58N 55°42' E 012°36'0 0.0
2018-Feb-11 12:28N 55°42' E 012°36'0 0.0
2018-Feb-11 11:58N 55°42' E 012°36'0 0.0
2018-Feb-11 11:28N 55°42' E 012°36'0 0.0
2018-Feb-11 10:58N 55°42' E 012°36'0 0.0
2018-Feb-11 10:28N 55°42' E 012°36'0 0.0
2018-Feb-11 09:58N 55°42' E 012°36'0 0.0
2018-Feb-11 09:28N 55°42' E 012°36'0 0.0
2018-Feb-11 08:58N 55°42' E 012°36'1 1.3
2018-Feb-11 08:30N 55°43' E 012°37'611.8
2018-Feb-11 08:00N 55°48' E 012°42'612.7
2018-Feb-11 07:30N 55°54' E 012°40'714.1
2018-Feb-11 07:00N 56°01' E 012°40'612.9
2018-Feb-11 06:31N 56°06' E 012°33'713.6
2018-Feb-11 06:00N 56°12' E 012°27'816.0
2018-Feb-11 05:31N 56°20' E 012°22'916.5
2018-Feb-11 04:59N 56°28' E 012°19'4617.1
2018-Feb-11 02:18N 57°12' E 011°55'517.5
2018-Feb-11 02:00N 57°16' E 011°49'917.3
2018-Feb-11 01:30N 57°23' E 011°39'817.0
2018-Feb-11 01:00N 57°29' E 011°30'816.8
2018-Feb-11 00:30N 57°36' E 011°20'816.8
2018-Feb-11 00:00N 57°43' E 011°11'816.0
2018-Feb-10 23:30N 57°50' E 011°05'817.0
2018-Feb-10 23:00N 57°58' E 010°59'816.9
2018-Feb-10 22:30N 58°06' E 010°54'917.1
2018-Feb-10 22:01N 58°14' E 010°49'1916.4
2018-Feb-10 20:51N 58°32' E 010°39'515.1
2018-Feb-10 20:30N 58°38' E 010°38'815.1
2018-Feb-10 20:00N 58°45' E 010°37'815.2
2018-Feb-10 19:31N 58°53' E 010°37'816.3
2018-Feb-10 19:01N 59°01' E 010°38'816.2
2018-Feb-10 18:30N 59°09' E 010°38'816.8
2018-Feb-10 18:00N 59°17' E 010°36'816.8
2018-Feb-10 17:30N 59°26' E 010°33'917.4
2018-Feb-10 17:00N 59°34' E 010°38'714.7
2018-Feb-10 16:30N 59°41' E 010°36'815.6
2018-Feb-10 16:00N 59°49' E 010°34'714.2
2018-Feb-10 15:30N 59°54' E 010°44'0 0.5
2018-Feb-10 15:00N 59°54' E 010°45'0 0.0
2018-Feb-10 14:28N 59°54' E 010°45'0 0.0
2018-Feb-10 13:58N 59°54' E 010°45'0 0.0
2018-Feb-10 13:28N 59°54' E 010°45'0 0.0
2018-Feb-10 12:58N 59°54' E 010°45'0 0.0
2018-Feb-10 12:28N 59°54' E 010°45'0 0.0
2018-Feb-10 11:58N 59°54' E 010°45'0 0.0
2018-Feb-10 11:28N 59°54' E 010°45'0 0.0
2018-Feb-10 10:58N 59°54' E 010°45'0 0.0
2018-Feb-10 10:28N 59°54' E 010°45'0 0.0
2018-Feb-10 09:58N 59°54' E 010°45'0 0.0
2018-Feb-10 09:28N 59°54' E 010°45'0 0.0
2018-Feb-10 08:59N 59°54' E 010°45'1 2.3
2018-Feb-10 08:30N 59°54' E 010°43'714.8
2018-Feb-10 08:00N 59°48' E 010°35'815.0
2018-Feb-10 07:30N 59°40' E 010°37'815.2
2018-Feb-10 07:00N 59°33' E 010°37'816.0
2018-Feb-10 06:30N 59°25' E 010°34'816.5
2018-Feb-10 06:00N 59°17' E 010°37'816.4
2018-Feb-10 05:30N 59°09' E 010°40'816.0
2018-Feb-10 05:00N 59°01' E 010°41'816.7
2018-Feb-10 04:30N 58°52' E 010°43'815.9
2018-Feb-10 04:00N 58°44' E 010°45'816.3
2018-Feb-10 03:30N 58°37' E 010°49'816.6
2018-Feb-10 03:00N 58°29' E 010°53'816.6
2018-Feb-10 02:30N 58°21' E 010°58'1015.8
2018-Feb-10 01:52N 58°11' E 011°04'616.7
2018-Feb-10 01:30N 58°05' E 011°08'917.3
2018-Feb-10 01:00N 57°57' E 011°12'816.5
2018-Feb-10 00:30N 57°49' E 011°17'816.5
2018-Feb-10 00:00N 57°42' E 011°24'816.6
2018-Feb-09 23:30N 57°34' E 011°30'816.7
2018-Feb-09 23:00N 57°27' E 011°37'416.7
2018-Feb-09 22:46N 57°23' E 011°41'416.9
2018-Feb-09 22:30N 57°20' E 011°45'816.7
2018-Feb-09 22:00N 57°13' E 011°53'816.8
2018-Feb-09 21:30N 57°05' E 011°59'5816.5
2018-Feb-09 18:00N 56°10' E 012°30'917.6
2018-Feb-09 17:30N 56°03' E 012°40'816.9
2018-Feb-09 17:00N 55°55' E 012°44'816.4
2018-Feb-09 16:30N 55°46' E 012°42'6 5.5
2018-Feb-09 15:30N 55°42' E 012°36'  
Track history (hours):
 
Tides and Currents Weather Stations Pressure Air Temp Water Temp Dewpoint Dewpoint Depression Visibility Wind Speed Wind Dir Waves Ship Positions

Pearl Of Scandinavia

Last reported at 2018-Feb-19 10:00 UTC. Time now 2018-Feb-19 10:21 UTC.
Position N 55°42' E 012°36'.

Length 176.4 m; beam 34 m; draft 6.215 m.

Type: Ship. MMSI: 219945000.

Date/timePositionNaut miles runAvg speedWind from/ knotsBaromVisibWave heightAir tempDewpointWater temp
2018-Feb-19 10:00N 55°42' E 012°36'0 0.0
2018-Feb-19 09:30N 55°42' E 012°36'0 0.0
2018-Feb-19 09:00N 55°42' E 012°36'0 0.7
2018-Feb-19 08:30N 55°42' E 012°36'510.6
2018-Feb-19 08:00N 55°47' E 012°42'713.8
2018-Feb-19 07:30N 55°54' E 012°40'714.2
2018-Feb-19 07:00N 56°01' E 012°40'713.8
2018-Feb-19 06:30N 56°06' E 012°33'714.7
2018-Feb-19 06:00N 56°13' E 012°27'815.5
2018-Feb-19 05:30N 56°20' E 012°22'816.2
2018-Feb-19 04:59N 56°28' E 012°18'4616.7
2018-Feb-19 02:12N 57°13' E 011°53'316.4
2018-Feb-19 02:00N 57°15' E 011°51'816.6
2018-Feb-19 01:30N 57°23' E 011°43'817.0
2018-Feb-19 01:00N 57°30' E 011°36'816.8
2018-Feb-19 00:31N 57°37' E 011°28'816.7
2018-Feb-19 00:00N 57°45' E 011°21'816.7
2018-Feb-18 23:30N 57°53' E 011°15'816.8
2018-Feb-18 23:00N 58°01' E 011°11'816.2
2018-Feb-18 22:30N 58°08' E 011°06'816.2
2018-Feb-18 22:00N 58°16' E 011°02'816.4
2018-Feb-18 21:31N 58°24' E 010°57'815.1
2018-Feb-18 21:00N 58°31' E 010°53'816.1
2018-Feb-18 20:30N 58°39' E 010°49'816.4
2018-Feb-18 20:00N 58°47' E 010°45'917.3
2018-Feb-18 19:30N 58°56' E 010°43'917.2
2018-Feb-18 19:00N 59°04' E 010°40'917.1
2018-Feb-18 18:30N 59°12' E 010°37'917.1
2018-Feb-18 18:00N 59°21' E 010°35'816.6
2018-Feb-18 17:30N 59°29' E 010°34'816.3
2018-Feb-18 17:00N 59°37' E 010°37'815.0
2018-Feb-18 16:30N 59°44' E 010°33'816.1
2018-Feb-18 16:00N 59°52' E 010°38'4 8.0
2018-Feb-18 15:30N 59°54' E 010°45'0 0.0
2018-Feb-18 14:59N 59°54' E 010°45'0 0.0
2018-Feb-18 14:29N 59°54' E 010°45'0 0.0
2018-Feb-18 13:59N 59°54' E 010°45'0 0.0
2018-Feb-18 13:29N 59°54' E 010°45'0 0.0
2018-Feb-18 12:59N 59°54' E 010°45'0 0.0
2018-Feb-18 12:29N 59°54' E 010°45'0 0.0
2018-Feb-18 11:59N 59°54' E 010°45'0 0.0
2018-Feb-18 11:29N 59°54' E 010°45'0 0.0
2018-Feb-18 10:59N 59°54' E 010°45'0 0.0
2018-Feb-18 10:29N 59°54' E 010°45'0 0.0
2018-Feb-18 09:59N 59°54' E 010°45'0 0.0
2018-Feb-18 09:29N 59°54' E 010°45'0 0.0
2018-Feb-18 08:59N 59°54' E 010°45'0 0.4
2018-Feb-18 08:30N 59°54' E 010°44'612.7
2018-Feb-18 08:00N 59°50' E 010°36'815.3
2018-Feb-18 07:30N 59°42' E 010°36'714.6
2018-Feb-18 07:01N 59°35' E 010°38'815.6
2018-Feb-18 06:31N 59°27' E 010°34'815.8
2018-Feb-18 06:01N 59°19' E 010°36'816.0
2018-Feb-18 05:31N 59°11' E 010°39'815.7
2018-Feb-18 05:00N 59°04' E 010°39'815.6
2018-Feb-18 04:31N 58°56' E 010°38'815.6
2018-Feb-18 04:01N 58°48' E 010°37'917.3
2018-Feb-18 03:31N 58°39' E 010°38'917.2
2018-Feb-18 03:00N 58°31' E 010°39'915.6
2018-Feb-18 02:27N 58°22' E 010°44'1316.1
2018-Feb-18 01:40N 58°11' E 010°51'316.2
2018-Feb-18 01:29N 58°08' E 010°53'816.2
2018-Feb-18 01:00N 58°00' E 010°58'815.8
2018-Feb-18 00:31N 57°53' E 011°03'815.9
2018-Feb-18 00:00N 57°45' E 011°08'816.3
2018-Feb-17 23:31N 57°38' E 011°16'816.8
2018-Feb-17 23:00N 57°31' E 011°24'816.6
2018-Feb-17 22:31N 57°24' E 011°31'816.4
2018-Feb-17 22:01N 57°16' E 011°36'816.4
2018-Feb-17 21:30N 57°08' E 011°40'816.6
2018-Feb-17 21:00N 57°00' E 011°45'5316.2
2018-Feb-17 17:44N 56°13' E 012°28'416.8
2018-Feb-17 17:30N 56°10' E 012°31'816.4
2018-Feb-17 17:00N 56°03' E 012°39'816.1
2018-Feb-17 16:30N 55°55' E 012°44'815.6
2018-Feb-17 16:00N 55°47' E 012°43'612.8
2018-Feb-17 15:30N 55°42' E 012°36'0 0.2
2018-Feb-17 15:00N 55°42' E 012°36'0 0.0
2018-Feb-17 14:30N 55°42' E 012°36'0 0.0
2018-Feb-17 14:00N 55°42' E 012°36'0 0.0
2018-Feb-17 13:30N 55°42' E 012°36'0 0.0
2018-Feb-17 13:00N 55°42' E 012°36'0 0.0
2018-Feb-17 12:30N 55°42' E 012°36'0 0.0
2018-Feb-17 12:00N 55°42' E 012°36'0 0.0
2018-Feb-17 11:30N 55°42' E 012°36'0 0.0
2018-Feb-17 11:00N 55°42' E 012°36'0 0.0
2018-Feb-17 10:30N 55°42' E 012°36'0 0.0
2018-Feb-17 10:00N 55°42' E 012°36'0 0.0
2018-Feb-17 09:30N 55°42' E 012°36'0 0.0
2018-Feb-17 09:00N 55°42' E 012°36'0 0.6
2018-Feb-17 08:30N 55°42' E 012°36'611.3
2018-Feb-17 08:00N 55°47' E 012°42'714.3
2018-Feb-17 07:30N 55°54' E 012°39'815.2
2018-Feb-17 07:00N 56°02' E 012°39'815.8
2018-Feb-17 06:30N 56°08' E 012°30'815.5
2018-Feb-17 06:00N 56°15' E 012°25'815.5
2018-Feb-17 05:30N 56°23' E 012°21'5417.0
2018-Feb-17 02:21N 57°14' E 011°52'617.4
2018-Feb-17 02:00N 57°19' E 011°47'917.8
2018-Feb-17 01:30N 57°27' E 011°38'918.0
2018-Feb-17 01:01N 57°34' E 011°30'917.4
2018-Feb-17 00:30N 57°42' E 011°23'816.6
2018-Feb-17 00:00N 57°50' E 011°17'917.1
2018-Feb-16 23:30N 57°58' E 011°12'815.7
2018-Feb-16 23:00N 58°05' E 011°08'714.7
2018-Feb-16 22:30N 58°12' E 011°04'715.0
2018-Feb-16 22:00N 58°20' E 010°60'815.3
2018-Feb-16 21:30N 58°27' E 010°56'815.3
2018-Feb-16 21:00N 58°34' E 010°52'815.4
2018-Feb-16 20:31N 58°42' E 010°47'815.8
2018-Feb-16 20:00N 58°50' E 010°45'816.3
2018-Feb-16 19:31N 58°58' E 010°42'816.4
2018-Feb-16 19:00N 59°06' E 010°40'816.5
2018-Feb-16 18:30N 59°14' E 010°37'816.6
2018-Feb-16 18:00N 59°22' E 010°34'816.7
2018-Feb-16 17:30N 59°30' E 010°35'816.2
2018-Feb-16 17:00N 59°38' E 010°37'714.3
2018-Feb-16 16:30N 59°45' E 010°33'815.9
2018-Feb-16 16:00N 59°53' E 010°39'3 6.3
2018-Feb-16 15:30N 59°54' E 010°45'0 0.0
2018-Feb-16 15:00N 59°54' E 010°45'0 0.0
2018-Feb-16 14:30N 59°54' E 010°45'0 0.0
2018-Feb-16 14:00N 59°54' E 010°45'0 0.0
2018-Feb-16 13:30N 59°54' E 010°45'0 0.0
2018-Feb-16 13:00N 59°54' E 010°45'0 0.0
2018-Feb-16 12:29N 59°54' E 010°45'0 0.0
2018-Feb-16 11:59N 59°54' E 010°45'0 0.0
2018-Feb-16 11:26N 59°54' E 010°45'0 0.0
2018-Feb-16 10:56N 59°54' E 010°45'0 0.0
2018-Feb-16 10:29N 59°54' E 010°45'0 0.0
2018-Feb-16 09:59N 59°54' E 010°45'0 0.0
2018-Feb-16 09:29N 59°54' E 010°45'0 0.0
2018-Feb-16 08:59N 59°54' E 010°45'2 3.2
2018-Feb-16 08:30N 59°54' E 010°42'713.5
2018-Feb-16 08:01N 59°48' E 010°35'815.2
2018-Feb-16 07:30N 59°41' E 010°37'612.5
2018-Feb-16 07:00N 59°34' E 010°38'815.4
2018-Feb-16 06:30N 59°27' E 010°34'816.1
2018-Feb-16 06:00N 59°19' E 010°36'816.8
2018-Feb-16 05:31N 59°11' E 010°39'816.0
2018-Feb-16 05:00N 59°03' E 010°39'816.1
2018-Feb-16 04:30N 58°55' E 010°38'917.2
2018-Feb-16 04:01N 58°46' E 010°37'816.8
2018-Feb-16 03:30N 58°38' E 010°38'816.6
2018-Feb-16 03:01N 58°30' E 010°40'2316.6
2018-Feb-16 01:38N 58°08' E 010°53'215.9
2018-Feb-16 01:30N 58°06' E 010°54'816.2
2018-Feb-16 01:01N 57°58' E 010°59'816.4
2018-Feb-16 00:30N 57°50' E 011°04'816.4
2018-Feb-16 00:01N 57°43' E 011°10'816.2
2018-Feb-15 23:31N 57°36' E 011°18'816.2
2018-Feb-15 23:00N 57°29' E 011°27'817.0
2018-Feb-15 22:31N 57°22' E 011°33'816.9
2018-Feb-15 22:01N 57°14' E 011°38'816.5
2018-Feb-15 21:30N 57°05' E 011°42'916.8
2018-Feb-15 20:59N 56°57' E 011°46'5016.0
2018-Feb-15 17:54N 56°13' E 012°28'716.8
2018-Feb-15 17:30N 56°07' E 012°33'917.7
2018-Feb-15 17:01N 55°60' E 012°41'816.4
2018-Feb-15 16:31N 55°52' E 012°44'816.1
2018-Feb-15 16:01N 55°44' E 012°40'3 5.8
2018-Feb-15 15:31N 55°42' E 012°36'0 0.0
2018-Feb-15 14:59N 55°42' E 012°36'0 0.0
2018-Feb-15 14:29N 55°42' E 012°36'0 0.0
2018-Feb-15 13:59N 55°42' E 012°36'0 0.0
2018-Feb-15 13:29N 55°42' E 012°36'0 0.0
2018-Feb-15 13:00N 55°42' E 012°36'0 0.0
2018-Feb-15 12:30N 55°42' E 012°36'0 0.0
2018-Feb-15 12:00N 55°42' E 012°36'0 0.0
2018-Feb-15 11:30N 55°42' E 012°36'0 0.0
2018-Feb-15 11:00N 55°42' E 012°36'0 0.0
2018-Feb-15 10:29N 55°42' E 012°36'0 0.0
2018-Feb-15 10:00N 55°42' E 012°36'0 0.0
2018-Feb-15 09:30N 55°42' E 012°36'0 0.0
2018-Feb-15 09:00N 55°42' E 012°36'0 0.6
2018-Feb-15 08:30N 55°42' E 012°36'612.1
2018-Feb-15 08:01N 55°47' E 012°43'714.3
2018-Feb-15 07:31N 55°54' E 012°44'714.7
2018-Feb-15 07:00N 56°01' E 012°40'612.7
2018-Feb-15 06:30N 56°06' E 012°33'713.9
2018-Feb-15 06:01N 56°12' E 012°27'816.4
2018-Feb-15 05:30N 56°20' E 012°22'5617.1
2018-Feb-15 02:13N 57°14' E 011°52'315.9
2018-Feb-15 02:00N 57°17' E 011°49'816.2
2018-Feb-15 01:30N 57°24' E 011°42'816.0
2018-Feb-15 01:00N 57°31' E 011°34'816.4
2018-Feb-15 00:31N 57°38' E 011°27'816.2
2018-Feb-15 00:01N 57°46' E 011°21'816.1
2018-Feb-14 23:30N 57°53' E 011°15'815.6
2018-Feb-14 23:00N 58°01' E 011°11'816.3
2018-Feb-14 22:31N 58°08' E 011°07'714.9
2018-Feb-14 22:00N 58°16' E 011°03'815.3
2018-Feb-14 21:30N 58°23' E 010°59'815.9
2018-Feb-14 21:00N 58°31' E 010°55'815.6
2018-Feb-14 20:30N 58°38' E 010°50'816.1
2018-Feb-14 20:00N 58°46' E 010°46'816.8
2018-Feb-14 19:30N 58°54' E 010°43'817.0
2018-Feb-14 19:00N 59°03' E 010°41'817.0
2018-Feb-14 18:30N 59°11' E 010°38'917.2
2018-Feb-14 18:01N 59°19' E 010°35'816.9
2018-Feb-14 17:30N 59°28' E 010°34'917.2
2018-Feb-14 17:01N 59°36' E 010°38'713.7
2018-Feb-14 16:30N 59°43' E 010°35'815.6
2018-Feb-14 16:00N 59°51' E 010°37'510.8
2018-Feb-14 15:30N 59°54' E 010°45'0 0.0
2018-Feb-14 15:00N 59°54' E 010°45'0 0.0
2018-Feb-14 14:30N 59°54' E 010°45'0 0.0
2018-Feb-14 14:00N 59°54' E 010°45'0 0.0
2018-Feb-14 13:30N 59°54' E 010°45'0 0.0
2018-Feb-14 13:00N 59°54' E 010°45'0 0.0
2018-Feb-14 12:30N 59°54' E 010°45'0 0.0
2018-Feb-14 12:00N 59°54' E 010°45'0 0.0
2018-Feb-14 11:30N 59°54' E 010°45'0 0.0
2018-Feb-14 11:00N 59°54' E 010°45'0 0.0
2018-Feb-14 10:30N 59°54' E 010°45'0 0.0
2018-Feb-14 10:00N 59°54' E 010°45'0 0.0
2018-Feb-14 09:30N 59°54' E 010°45'0 0.0
2018-Feb-14 09:00N 59°54' E 010°45'1 1.1
2018-Feb-14 08:30N 59°54' E 010°44'713.6
2018-Feb-14 08:01N 59°49' E 010°35'714.8
2018-Feb-14 07:30N 59°41' E 010°36'713.9
2018-Feb-14 07:01N 59°35' E 010°38'815.8
2018-Feb-14 06:30N 59°27' E 010°34'815.9
2018-Feb-14 06:00N 59°19' E 010°36'816.3
2018-Feb-14 05:31N 59°11' E 010°39'816.0
2018-Feb-14 05:01N 59°03' E 010°41'816.0
2018-Feb-14 04:30N 58°55' E 010°43'815.7
2018-Feb-14 04:00N 58°47' E 010°44'815.7
2018-Feb-14 03:30N 58°40' E 010°47'816.6
2018-Feb-14 03:00N 58°32' E 010°51'816.4
2018-Feb-14 02:30N 58°24' E 010°56'916.8
2018-Feb-14 02:00N 58°16' E 011°01'816.5
2018-Feb-14 01:31N 58°08' E 011°05'816.5
2018-Feb-14 01:01N 58°00' E 011°10'816.4
2018-Feb-14 00:30N 57°52' E 011°15'815.3
2018-Feb-14 00:01N 57°45' E 011°19'815.9
2018-Feb-13 23:30N 57°37' E 011°23'815.9
2018-Feb-13 23:01N 57°30' E 011°28'816.0
2018-Feb-13 22:30N 57°22' E 011°32'816.4
2018-Feb-13 22:00N 57°14' E 011°37'816.9
2018-Feb-13 21:31N 57°06' E 011°41'816.5
2018-Feb-13 21:00N 56°58' E 011°46'816.2
2018-Feb-13 20:29N 56°51' E 011°54'816.3
2018-Feb-13 19:59N 56°44' E 012°01'915.7
2018-Feb-13 19:25N 56°36' E 012°10'2515.8
2018-Feb-13 17:50N 56°13' E 012°27'516.4
2018-Feb-13 17:30N 56°09' E 012°32'815.7
2018-Feb-13 17:00N 56°02' E 012°40'815.9
2018-Feb-13 16:31N 55°55' E 012°44'815.3
2018-Feb-13 16:01N 55°47' E 012°42'612.2
2018-Feb-13 15:30N 55°42' E 012°36'0 0.2
2018-Feb-13 15:00N 55°42' E 012°36'0 0.0
2018-Feb-13 14:30N 55°42' E 012°36'0 0.0
2018-Feb-13 14:00N 55°42' E 012°36'0 0.0
2018-Feb-13 13:30N 55°42' E 012°36'0 0.0
2018-Feb-13 13:00N 55°42' E 012°36'0 0.0
2018-Feb-13 12:30N 55°42' E 012°36'0 0.0
2018-Feb-13 12:00N 55°42' E 012°36'0 0.0
2018-Feb-13 11:30N 55°42' E 012°36'0 0.0
2018-Feb-13 11:00N 55°42' E 012°36'0 0.0
2018-Feb-13 10:30N 55°42' E 012°36'0 0.0
2018-Feb-13 10:00N 55°42' E 012°36'0 0.0
2018-Feb-13 09:30N 55°42' E 012°36'0 0.0
2018-Feb-13 09:00N 55°42' E 012°36'0 0.8
2018-Feb-13 08:30N 55°42' E 012°36'611.1
2018-Feb-13 08:00N 55°47' E 012°42'714.0
2018-Feb-13 07:30N 55°54' E 012°39'714.9
2018-Feb-13 07:00N 56°01' E 012°40'815.8
2018-Feb-13 06:30N 56°07' E 012°31'815.6
2018-Feb-13 06:00N 56°15' E 012°25'815.5
2018-Feb-13 05:30N 56°22' E 012°21'915.9
2018-Feb-13 04:58N 56°30' E 012°18'4516.2
2018-Feb-13 02:10N 57°14' E 011°52'316.6
2018-Feb-13 02:00N 57°16' E 011°50'816.4
2018-Feb-13 01:30N 57°23' E 011°43'816.4
2018-Feb-13 01:00N 57°30' E 011°36'917.2
2018-Feb-13 00:30N 57°38' E 011°28'817.0
2018-Feb-13 00:00N 57°45' E 011°20'816.3
2018-Feb-12 23:30N 57°53' E 011°15'816.0
2018-Feb-12 23:01N 58°01' E 011°11'714.6
2018-Feb-12 22:31N 58°08' E 011°07'714.0
2018-Feb-12 22:00N 58°14' E 011°03'714.3
2018-Feb-12 21:30N 58°21' E 010°59'714.6
2018-Feb-12 21:00N 58°28' E 010°55'815.2
2018-Feb-12 20:30N 58°36' E 010°51'815.6
2018-Feb-12 20:00N 58°43' E 010°47'816.2
2018-Feb-12 19:31N 58°51' E 010°44'917.0
2018-Feb-12 19:00N 58°59' E 010°42'917.1
2018-Feb-12 18:30N 59°08' E 010°39'917.4
2018-Feb-12 18:00N 59°16' E 010°36'918.1
2018-Feb-12 17:30N 59°25' E 010°33'917.5
2018-Feb-12 17:00N 59°34' E 010°38'815.2
2018-Feb-12 16:30N 59°41' E 010°36'815.9
2018-Feb-12 16:00N 59°49' E 010°34'713.8
2018-Feb-12 15:30N 59°54' E 010°44'0 0.5
2018-Feb-12 15:00N 59°54' E 010°45'0 0.0
2018-Feb-12 14:29N 59°54' E 010°45'0 0.0
2018-Feb-12 13:59N 59°54' E 010°45'0 0.0
2018-Feb-12 13:29N 59°54' E 010°45'0 0.0
2018-Feb-12 12:59N 59°54' E 010°45'0 0.0
2018-Feb-12 12:29N 59°54' E 010°45'0 0.0
2018-Feb-12 11:59N 59°54' E 010°45'0 0.0
2018-Feb-12 11:29N 59°54' E 010°45'0 0.0
2018-Feb-12 10:59N 59°54' E 010°45'0 0.0
2018-Feb-12 10:29N 59°54' E 010°45'0 0.0
2018-Feb-12 09:59N 59°54' E 010°45'0 0.0
2018-Feb-12 09:29N 59°54' E 010°45'0 0.0
2018-Feb-12 08:59N 59°54' E 010°45'1 1.5
2018-Feb-12 08:30N 59°54' E 010°43'714.5
2018-Feb-12 08:00N 59°48' E 010°35'714.3
2018-Feb-12 07:31N 59°41' E 010°36'714.4
2018-Feb-12 07:01N 59°34' E 010°38'815.6
2018-Feb-12 06:30N 59°26' E 010°34'816.0
2018-Feb-12 06:01N 59°19' E 010°36'817.0
2018-Feb-12 05:31N 59°10' E 010°39'816.7
2018-Feb-12 05:01N 59°02' E 010°41'815.9
2018-Feb-12 04:31N 58°54' E 010°43'816.1
2018-Feb-12 04:01N 58°46' E 010°45'816.2
2018-Feb-12 03:31N 58°38' E 010°48'816.4
2018-Feb-12 03:00N 58°30' E 010°53'816.8
2018-Feb-12 02:30N 58°22' E 010°58'917.8
2018-Feb-12 02:00N 58°14' E 011°03'917.3
2018-Feb-12 01:28N 58°05' E 011°08'816.9
2018-Feb-12 01:01N 57°58' E 011°14'816.6
2018-Feb-12 00:31N 57°50' E 011°19'816.3
2018-Feb-12 00:00N 57°42' E 011°24'815.8
2018-Feb-11 23:30N 57°35' E 011°30'816.2
2018-Feb-11 23:01N 57°28' E 011°36'815.7
2018-Feb-11 22:31N 57°21' E 011°44'816.0
2018-Feb-11 22:01N 57°14' E 011°52'816.4
2018-Feb-11 21:30N 57°07' E 011°58'5615.9
2018-Feb-11 17:57N 56°13' E 012°28'817.0
2018-Feb-11 17:30N 56°06' E 012°35'817.0
2018-Feb-11 17:01N 55°59' E 012°42'816.2
2018-Feb-11 16:31N 55°51' E 012°44'815.4
2018-Feb-11 16:01N 55°43' E 012°39'2 4.4
2018-Feb-11 15:31N 55°42' E 012°36'0 0.0
2018-Feb-11 15:01N 55°42' E 012°36'0 0.0
2018-Feb-11 14:28N 55°42' E 012°36'0 0.0
2018-Feb-11 13:58N 55°42' E 012°36'0 0.0
2018-Feb-11 13:28N 55°42' E 012°36'0 0.0
2018-Feb-11 12:58N 55°42' E 012°36'0 0.0
2018-Feb-11 12:28N 55°42' E 012°36'0 0.0
2018-Feb-11 11:58N 55°42' E 012°36'0 0.0
2018-Feb-11 11:28N 55°42' E 012°36'0 0.0
2018-Feb-11 10:58N 55°42' E 012°36'0 0.0
2018-Feb-11 10:28N 55°42' E 012°36'0 0.0
2018-Feb-11 09:58N 55°42' E 012°36'0 0.0
2018-Feb-11 09:28N 55°42' E 012°36'0 0.0
2018-Feb-11 08:58N 55°42' E 012°36'1 1.3
2018-Feb-11 08:30N 55°43' E 012°37'611.8
2018-Feb-11 08:00N 55°48' E 012°42'612.7
2018-Feb-11 07:30N 55°54' E 012°40'714.1
2018-Feb-11 07:00N 56°01' E 012°40'612.9
2018-Feb-11 06:31N 56°06' E 012°33'713.6
2018-Feb-11 06:00N 56°12' E 012°27'816.0
2018-Feb-11 05:31N 56°20' E 012°22'916.5
2018-Feb-11 04:59N 56°28' E 012°19'4617.1
2018-Feb-11 02:18N 57°12' E 011°55'517.5
2018-Feb-11 02:00N 57°16' E 011°49'917.3
2018-Feb-11 01:30N 57°23' E 011°39'817.0
2018-Feb-11 01:00N 57°29' E 011°30'816.8
2018-Feb-11 00:30N 57°36' E 011°20'816.8
2018-Feb-11 00:00N 57°43' E 011°11'816.0
2018-Feb-10 23:30N 57°50' E 011°05'817.0
2018-Feb-10 23:00N 57°58' E 010°59'816.9
2018-Feb-10 22:30N 58°06' E 010°54'917.1
2018-Feb-10 22:01N 58°14' E 010°49'1916.4
2018-Feb-10 20:51N 58°32' E 010°39'515.1
2018-Feb-10 20:30N 58°38' E 010°38'815.1
2018-Feb-10 20:00N 58°45' E 010°37'815.2
2018-Feb-10 19:31N 58°53' E 010°37'816.3
2018-Feb-10 19:01N 59°01' E 010°38'816.2
2018-Feb-10 18:30N 59°09' E 010°38'816.8
2018-Feb-10 18:00N 59°17' E 010°36'816.8
2018-Feb-10 17:30N 59°26' E 010°33'917.4
2018-Feb-10 17:00N 59°34' E 010°38'714.7
2018-Feb-10 16:30N 59°41' E 010°36'815.6
2018-Feb-10 16:00N 59°49' E 010°34'714.2
2018-Feb-10 15:30N 59°54' E 010°44'0 0.5
2018-Feb-10 15:00N 59°54' E 010°45'0 0.0
2018-Feb-10 14:28N 59°54' E 010°45'0 0.0
2018-Feb-10 13:58N 59°54' E 010°45'0 0.0
2018-Feb-10 13:28N 59°54' E 010°45'0 0.0
2018-Feb-10 12:58N 59°54' E 010°45'0 0.0
2018-Feb-10 12:28N 59°54' E 010°45'0 0.0
2018-Feb-10 11:58N 59°54' E 010°45'0 0.0
2018-Feb-10 11:28N 59°54' E 010°45'0 0.0
2018-Feb-10 10:58N 59°54' E 010°45'0 0.0
2018-Feb-10 10:28N 59°54' E 010°45'0 0.0
2018-Feb-10 09:58N 59°54' E 010°45'0 0.0
2018-Feb-10 09:28N 59°54' E 010°45'0 0.0
2018-Feb-10 08:59N 59°54' E 010°45'1 2.3
2018-Feb-10 08:30N 59°54' E 010°43'714.8
2018-Feb-10 08:00N 59°48' E 010°35'815.0
2018-Feb-10 07:30N 59°40' E 010°37'815.2
2018-Feb-10 07:00N 59°33' E 010°37'816.0
2018-Feb-10 06:30N 59°25' E 010°34'816.5
2018-Feb-10 06:00N 59°17' E 010°37'816.4
2018-Feb-10 05:30N 59°09' E 010°40'816.0
2018-Feb-10 05:00N 59°01' E 010°41'816.7
2018-Feb-10 04:30N 58°52' E 010°43'815.9
2018-Feb-10 04:00N 58°44' E 010°45'816.3
2018-Feb-10 03:30N 58°37' E 010°49'816.6
2018-Feb-10 03:00N 58°29' E 010°53'816.6
2018-Feb-10 02:30N 58°21' E 010°58'1015.8
2018-Feb-10 01:52N 58°11' E 011°04'616.7
2018-Feb-10 01:30N 58°05' E 011°08'917.3
2018-Feb-10 01:00N 57°57' E 011°12'816.5
2018-Feb-10 00:30N 57°49' E 011°17'816.5
2018-Feb-10 00:00N 57°42' E 011°24'816.6
2018-Feb-09 23:30N 57°34' E 011°30'816.7
2018-Feb-09 23:00N 57°27' E 011°37'416.7
2018-Feb-09 22:46N 57°23' E 011°41'416.9
2018-Feb-09 22:30N 57°20' E 011°45'816.7
2018-Feb-09 22:00N 57°13' E 011°53'816.8
2018-Feb-09 21:30N 57°05' E 011°59'5816.5
2018-Feb-09 18:00N 56°10' E 012°30'917.6
2018-Feb-09 17:30N 56°03' E 012°40'816.9
2018-Feb-09 17:00N 55°55' E 012°44'816.4
2018-Feb-09 16:30N 55°46' E 012°42'6 5.5
2018-Feb-09 15:30N 55°42' E 012°36'  

Dump ship's entire track history